createdAt,value
2022-08-03T00:08:48.868Z,63.46
2022-08-03T00:18:55.086Z,62.49
2022-08-03T00:29:01.512Z,62.14
2022-08-03T00:39:07.705Z,63.22
2022-08-03T00:49:13.887Z,64.36
2022-08-03T00:59:20.210Z,63.37
2022-08-03T01:09:26.510Z,65.26
2022-08-03T01:19:32.947Z,65.58
2022-08-03T01:29:39.156Z,63.90
2022-08-03T01:39:45.799Z,65.29
2022-08-03T01:49:51.935Z,64.17
2022-08-03T01:59:58.311Z,63.69
2022-08-03T02:10:04.610Z,65.08
2022-08-03T02:20:10.687Z,63.98
2022-08-03T02:30:16.637Z,64.64
2022-08-03T02:40:22.903Z,64.24
2022-08-03T02:50:28.803Z,64.64
2022-08-03T03:00:34.942Z,65.45
2022-08-03T03:10:41.014Z,65.54
2022-08-03T03:20:46.976Z,66.12
2022-08-03T03:30:53.605Z,65.62
2022-08-03T03:41:00.012Z,65.31
2022-08-03T03:51:05.925Z,66.05
2022-08-03T04:01:12.457Z,65.64
2022-08-03T04:11:18.957Z,65.69
2022-08-03T04:21:26.347Z,64.60
2022-08-03T04:31:32.241Z,64.44
2022-08-03T04:42:07.644Z,67.14
2022-08-03T04:51:51.156Z,67.55
2022-08-03T05:01:58.560Z,64.03
2022-08-03T05:12:06.293Z,64.62
2022-08-03T05:22:12.974Z,64.43
2022-08-03T05:32:19.838Z,65.24
2022-08-03T05:42:26.960Z,64.70
2022-08-03T05:52:36.318Z,64.22
2022-08-03T06:02:42.622Z,63.45
2022-08-03T06:12:50.612Z,63.48
2022-08-03T06:23:00.133Z,63.45
2022-08-03T06:33:08.215Z,63.20
2022-08-03T06:43:14.035Z,63.71
2022-08-03T06:53:22.276Z,63.03
2022-08-03T07:03:28.045Z,62.64
2022-08-03T07:13:33.547Z,62.20
2022-08-03T07:23:39.307Z,62.23
2022-08-03T07:33:45.371Z,62.13
2022-08-03T07:43:51.253Z,62.17
2022-08-03T07:53:57.214Z,62.04
2022-08-03T08:04:03.738Z,62.45
2022-08-03T08:14:09.567Z,63.21
2022-08-03T08:24:18.332Z,61.52
2022-08-03T08:34:26.676Z,61.42
2022-08-03T08:44:32.175Z,61.49
2022-08-03T08:54:37.998Z,61.17
2022-08-03T09:04:43.780Z,60.60
2022-08-03T09:15:07.430Z,60.01
2022-08-03T09:25:22.661Z,59.61
2022-08-03T09:35:11.214Z,58.93
2022-08-03T09:45:16.783Z,58.75
2022-08-03T09:56:32.901Z,58.09
2022-08-03T10:05:33.932Z,57.87
2022-08-03T10:16:22.945Z,56.28
2022-08-03T10:25:50.763Z,57.03
2022-08-03T10:35:56.945Z,56.07
2022-08-03T10:46:04.549Z,48.58
2022-08-03T10:56:14.587Z,46.74
2022-08-03T11:06:29.252Z,44.96
2022-08-03T11:18:14.567Z,43.52
2022-08-03T11:28:22.105Z,41.12
2022-08-03T11:38:32.433Z,40.50
2022-08-03T11:48:40.682Z,40.25
2022-08-03T11:59:17.465Z,41.78
2022-08-03T12:08:59.951Z,42.50
2022-08-03T12:19:06.418Z,45.44
2022-08-03T12:29:14.027Z,45.61
2022-08-03T12:39:21.062Z,44.14
2022-08-03T12:49:28.183Z,45.06
2022-08-03T12:59:41.231Z,45.19
2022-08-03T13:09:46.789Z,45.69
2022-08-03T13:19:54.538Z,46.25
2022-08-03T13:30:00.181Z,46.15
2022-08-03T13:40:02.366Z,46.42
2022-08-03T13:50:08.014Z,47.05
2022-08-03T14:00:27.413Z,47.54
2022-08-03T14:10:27.440Z,47.82
2022-08-03T14:20:37.972Z,48.69
2022-08-03T14:30:46.180Z,49.35
2022-08-03T14:40:52.994Z,50.45
2022-08-03T14:50:59.247Z,50.98
2022-08-03T15:02:05.419Z,51.12
2022-08-03T15:11:18.225Z,51.21
2022-08-03T15:21:46.155Z,51.55
2022-08-03T15:31:35.459Z,52.24
2022-08-03T15:41:43.531Z,52.70
2022-08-03T15:51:49.495Z,53.12
2022-08-03T16:01:56.478Z,53.63
2022-08-03T16:12:03.745Z,54.28
2022-08-03T16:22:09.572Z,54.85
2022-08-03T16:32:15.893Z,55.44
2022-08-03T16:42:21.586Z,55.77
2022-08-03T16:52:29.737Z,56.03
2022-08-03T17:02:36.235Z,56.42
2022-08-03T17:12:42.778Z,56.84
2022-08-03T17:22:49.205Z,57.16
2022-08-03T17:32:57.563Z,57.44
2022-08-03T17:44:08.174Z,57.64
2022-08-03T17:53:24.330Z,57.86
2022-08-03T18:03:27.499Z,58.04
2022-08-03T18:13:35.706Z,58.19
2022-08-03T18:23:44.815Z,58.31
2022-08-03T18:34:16.230Z,58.38
2022-08-03T18:44:46.476Z,58.56
2022-08-03T18:54:51.727Z,58.98
2022-08-03T19:04:34.139Z,58.96
2022-08-03T19:14:41.716Z,58.90
2022-08-03T19:24:48.777Z,56.93
2022-08-03T19:34:55.326Z,57.68
2022-08-03T19:45:02.468Z,58.11
2022-08-03T19:55:15.362Z,58.44
2022-08-03T20:05:21.094Z,57.50
2022-08-03T20:15:31.790Z,58.66
2022-08-03T20:25:48.461Z,59.33
2022-08-03T20:35:50.016Z,59.68
2022-08-03T20:45:59.578Z,59.78
2022-08-03T20:56:08.750Z,59.93
2022-08-03T21:06:14.858Z,60.29
2022-08-03T21:16:23.460Z,60.74
2022-08-03T21:26:29.760Z,60.78
2022-08-03T21:36:37.189Z,61.20
2022-08-03T21:46:43.072Z,61.63
2022-08-03T21:56:50.714Z,61.40
2022-08-03T22:06:56.734Z,61.64
2022-08-03T22:17:07.112Z,61.76
2022-08-03T22:27:12.833Z,60.13
2022-08-03T22:38:37.718Z,61.22
2022-08-03T22:48:43.114Z,61.16
2022-08-03T22:58:51.023Z,61.24
2022-08-03T23:08:57.056Z,61.36
2022-08-03T23:19:17.125Z,61.85
2022-08-03T23:29:16.082Z,61.66
2022-08-03T23:39:24.098Z,61.89
2022-08-03T23:49:30.538Z,62.51
2022-08-03T23:59:36.723Z,63.02
